Time;durP1;ratioP1;P1;durP2;ratioP2;P2;SDS_P1;SDS_P2;PMS_P1;PMS_P2;Temp;Humidity;BMP_temperature;BMP_pressure;BME280_temperature;BME280_humidity;BME280_pressure;Samples;Min_cycle;Max_cycle;Signal;HPM_P1;HPM_P2
2022/11/07 00:02:27;;;;;;;3.50;0.90;;;23.60;99.90;;;;;;5040686;28;20227;-77
2022/11/07 00:04:58;;;;;;;2.20;0.88;;;23.70;99.90;;;;;;5043350;28;20544;-78
2022/11/07 00:07:29;;;;;;;5.13;0.93;;;23.90;99.90;;;;;;5049558;28;20217;-78
2022/11/07 00:10:00;;;;;;;5.13;0.90;;;23.90;99.90;;;;;;5050213;28;20242;-79
2022/11/07 00:12:34;;;;;;;4.50;0.70;;;24.10;99.90;;;;;;5049379;28;20323;-79
2022/11/07 00:15:06;;;;;;;5.65;0.70;;;24.20;99.90;;;;;;5041067;28;20198;-79
2022/11/07 00:17:39;;;;;;;3.70;0.70;;;24.30;99.90;;;;;;5045836;28;20200;-80
2022/11/07 00:20:11;;;;;;;4.13;0.93;;;24.30;99.90;;;;;;5048748;28;20538;-78
2022/11/07 00:22:42;;;;;;;4.57;0.75;;;24.30;99.90;;;;;;5049559;28;20619;-78
2022/11/07 00:25:13;;;;;;;3.42;0.93;;;24.40;99.90;;;;;;5069203;28;20565;-79
2022/11/07 00:27:44;;;;;;;6.05;0.77;;;24.60;99.90;;;;;;5068821;28;20222;-78
2022/11/07 00:30:15;;;;;;;3.15;0.60;;;24.70;99.90;;;;;;5069628;28;20202;-79
2022/11/07 00:32:48;;;;;;;1.63;0.70;;;24.70;99.90;;;;;;5069912;28;20278;-79
2022/11/07 00:35:19;;;;;;;4.10;0.60;;;24.90;99.90;;;;;;5069993;28;20200;-79
2022/11/07 00:37:49;;;;;;;3.63;0.70;;;24.90;99.90;;;;;;5069014;28;20678;-78
2022/11/07 00:40:21;;;;;;;2.28;0.70;;;25.00;99.90;;;;;;5056053;28;20683;-78
2022/11/07 00:42:51;;;;;;;4.85;0.85;;;24.90;99.90;;;;;;5051277;28;20193;-78
2022/11/07 00:45:22;;;;;;;2.90;0.70;;;25.00;99.90;;;;;;5048560;28;20200;-78
2022/11/07 00:47:55;;;;;;;2.60;0.40;;;25.00;99.90;;;;;;5051596;28;20222;-78
2022/11/07 00:50:26;;;;;;;4.05;0.85;;;25.10;99.90;;;;;;5052843;28;20204;-76
2022/11/07 00:52:59;;;;;;;2.17;0.75;;;25.20;99.90;;;;;;5050999;28;20231;-77
2022/11/07 00:55:29;;;;;;;4.93;0.82;;;25.20;99.90;;;;;;5050897;28;20655;-78
2022/11/07 00:58:00;;;;;;;4.10;0.80;;;25.10;99.90;;;;;;5067783;28;20208;-78
2022/11/07 01:00:32;;;;;;;2.50;0.70;;;25.20;99.90;;;;;;5048422;28;20238;-78
2022/11/07 01:06:04;;;;;;;3.10;0.77;;;25.10;99.90;;;;;;4976703;28;20193;-79
2022/11/07 01:08:35;;;;;;;2.78;0.57;;;25.10;99.90;;;;;;5023391;28;20787;-78
2022/11/07 01:11:08;;;;;;;1.35;0.45;;;25.00;99.90;;;;;;5034556;28;20227;-77
2022/11/07 01:13:39;;;;;;;3.63;0.65;;;25.10;99.90;;;;;;5053897;28;20601;-78
2022/11/07 01:16:13;;;;;;;3.10;0.57;;;25.20;99.90;;;;;;5054350;28;20663;-78
2022/11/07 01:18:45;;;;;;;3.70;0.70;;;25.20;99.90;;;;;;5054312;28;20197;-77
2022/11/07 01:21:19;;;;;;;1.67;0.52;;;25.30;99.90;;;;;;5055816;28;20221;-77
2022/11/07 01:23:51;;;;;;;2.25;0.60;;;25.40;99.90;;;;;;5049042;28;20212;-78
2022/11/07 01:26:22;;;;;;;3.92;0.70;;;25.30;99.90;;;;;;5045650;28;20197;-77
2022/11/07 01:28:52;;;;;;;2.30;0.55;;;25.50;99.90;;;;;;5056394;28;20220;-77
2022/11/07 01:31:24;;;;;;;2.72;0.60;;;25.50;99.90;;;;;;5052772;28;20594;-78
2022/11/07 01:33:56;;;;;;;3.28;0.60;;;25.60;99.90;;;;;;5039075;28;20387;-78
2022/11/07 01:36:28;;;;;;;4.88;0.90;;;25.70;99.90;;;;;;5050150;28;20215;-79
2022/11/07 01:38:59;;;;;;;4.45;0.68;;;25.60;99.90;;;;;;5052898;28;20594;-79
2022/11/07 01:41:32;;;;;;;2.15;0.52;;;25.70;99.90;;;;;;5061814;28;20311;-74
2022/11/07 01:44:04;;;;;;;2.90;0.65;;;25.70;99.90;;;;;;5051652;28;20212;-80
2022/11/07 01:46:37;;;;;;;2.75;0.55;;;25.60;99.90;;;;;;5039965;28;20221;-78
2022/11/07 01:49:15;;;;;;;2.42;0.73;;;25.60;99.90;;;;;;5044536;28;20229;-78
2022/11/07 01:51:49;;;;;;;2.53;0.60;;;25.60;99.90;;;;;;5035585;28;20228;-79
2022/11/07 01:54:23;;;;;;;4.75;0.60;;;25.60;99.90;;;;;;5047851;28;20207;-79
2022/11/07 01:56:56;;;;;;;3.47;0.40;;;25.70;99.90;;;;;;5039992;28;20250;-78
2022/11/07 01:59:30;;;;;;;3.00;0.73;;;25.60;99.90;;;;;;5044462;28;20212;-77
2022/11/07 02:02:02;;;;;;;3.30;0.50;;;25.60;99.90;;;;;;5046580;28;20641;-78
2022/11/07 02:04:35;;;;;;;1.75;0.55;;;25.60;99.90;;;;;;5044171;28;20631;-78
2022/11/07 02:07:10;;;;;;;2.38;0.70;;;25.70;99.90;;;;;;5045645;28;20192;-78
2022/11/07 02:09:43;;;;;;;1.92;0.47;;;25.80;99.90;;;;;;5051575;28;20228;-79
2022/11/07 02:12:15;;;;;;;1.75;0.47;;;25.70;99.90;;;;;;5047660;28;20632;-78
2022/11/07 02:14:46;;;;;;;1.42;0.60;;;25.90;99.90;;;;;;5044765;28;20228;-79
2022/11/07 02:17:18;;;;;;;2.47;0.60;;;26.10;99.90;;;;;;5047090;28;20210;-79
2022/11/07 02:19:52;;;;;;;1.85;0.50;;;26.10;99.90;;;;;;5043462;28;20671;-80
2022/11/07 02:22:35;;;;;;;3.10;0.70;;;26.30;99.90;;;;;;5050851;28;20242;-77
2022/11/07 02:25:11;;;;;;;2.42;0.50;;;26.10;99.90;;;;;;5033342;28;20652;-78
2022/11/07 02:27:46;;;;;;;2.30;0.70;;;26.20;99.90;;;;;;5036635;28;20196;-79
2022/11/07 02:30:19;;;;;;;3.78;0.70;;;26.20;99.90;;;;;;5049339;28;20231;-78
2022/11/07 02:32:50;;;;;;;1.85;0.63;;;26.20;99.90;;;;;;5031998;28;20194;-78
2022/11/07 02:35:39;;;;;;;3.78;0.63;;;26.00;99.90;;;;;;5039389;28;20770;-77
2022/11/07 02:38:16;;;;;;;2.83;0.60;;;26.30;99.90;;;;;;5034240;28;20656;-80
2022/11/07 02:40:52;;;;;;;3.42;0.80;;;26.40;99.90;;;;;;5036211;28;20683;-80
2022/11/07 02:43:25;;;;;;;3.95;0.77;;;26.60;99.90;;;;;;5051577;28;20224;-76
2022/11/07 02:45:59;;;;;;;3.03;0.40;;;26.50;99.90;;;;;;5049885;28;20224;-80
2022/11/07 02:48:33;;;;;;;3.47;0.68;;;26.40;99.90;;;;;;5045435;28;20224;-79
2022/11/07 02:51:04;;;;;;;3.47;0.60;;;26.30;99.90;;;;;;5049112;28;20199;-79
2022/11/07 02:53:34;;;;;;;2.75;0.60;;;26.20;99.90;;;;;;5047522;28;20213;-79
2022/11/07 02:56:09;;;;;;;1.52;0.50;;;26.10;99.90;;;;;;5050954;28;20232;-78
2022/11/07 02:58:40;;;;;;;3.83;0.60;;;26.00;99.90;;;;;;5045177;28;20278;-78
2022/11/07 03:01:14;;;;;;;1.70;0.40;;;26.10;99.90;;;;;;5047059;28;20251;-79
2022/11/07 03:03:47;;;;;;;5.22;0.82;;;26.00;99.90;;;;;;5037638;28;20215;-78
2022/11/07 03:06:19;;;;;;;2.92;0.57;;;26.10;99.90;;;;;;5042534;28;20216;-79
2022/11/07 03:08:50;;;;;;;1.75;0.55;;;26.20;99.90;;;;;;5045369;28;20591;-79
2022/11/07 03:11:23;;;;;;;3.00;0.65;;;26.40;99.90;;;;;;5034953;28;20224;-79
2022/11/07 03:13:55;;;;;;;4.03;0.60;;;26.60;99.90;;;;;;5037570;28;20224;-79
2022/11/07 03:16:26;;;;;;;2.72;0.68;;;26.60;99.90;;;;;;5040102;28;20279;-78
2022/11/07 03:18:57;;;;;;;2.65;0.60;;;26.80;99.90;;;;;;5039806;28;20220;-79
2022/11/07 03:21:27;;;;;;;1.63;0.40;;;26.70;99.90;;;;;;5048469;28;20200;-79
2022/11/07 03:23:58;;;;;;;2.22;0.52;;;26.60;99.90;;;;;;5048015;28;20204;-78
2022/11/07 03:26:31;;;;;;;2.00;0.57;;;26.40;99.90;;;;;;5048024;28;20193;-78
2022/11/07 03:29:02;;;;;;;2.35;0.70;;;26.40;99.90;;;;;;5039778;28;20590;-79
2022/11/07 03:31:34;;;;;;;4.80;0.90;;;26.60;99.90;;;;;;5041957;28;20220;-79
2022/11/07 03:34:04;;;;;;;5.70;0.70;;;26.70;99.90;;;;;;5040154;28;20216;-76
2022/11/07 03:36:35;;;;;;;2.88;0.60;;;26.80;99.90;;;;;;5042930;28;20217;-78
2022/11/07 03:39:06;;;;;;;4.50;0.60;;;26.70;99.90;;;;;;5040338;28;20193;-78
2022/11/07 03:41:39;;;;;;;2.65;0.60;;;26.60;99.90;;;;;;5038882;28;20196;-78
2022/11/07 03:44:10;;;;;;;3.45;0.60;;;26.40;99.90;;;;;;5050615;28;20570;-79
2022/11/07 03:46:40;;;;;;;3.10;0.50;;;26.30;99.90;;;;;;5047763;28;20205;-76
2022/11/07 03:49:11;;;;;;;1.58;0.50;;;26.20;99.90;;;;;;5056633;28;20239;-78
2022/11/07 03:51:42;;;;;;;2.15;0.40;;;26.00;99.90;;;;;;5040730;28;20297;-79
2022/11/07 03:54:13;;;;;;;2.03;0.40;;;26.10;99.90;;;;;;5048314;28;20203;-77
2022/11/07 03:56:46;;;;;;;4.57;0.60;;;26.10;99.90;;;;;;5041475;28;20219;-78
2022/11/07 03:59:16;;;;;;;1.42;0.47;;;26.00;99.90;;;;;;5043609;28;20197;-77
2022/11/07 04:01:47;;;;;;;2.13;0.60;;;26.00;99.90;;;;;;5037860;28;20193;-79
2022/11/07 04:04:18;;;;;;;3.65;0.50;;;26.20;99.90;;;;;;5051112;28;20627;-78
2022/11/07 04:06:49;;;;;;;3.88;0.82;;;26.30;99.90;;;;;;5047486;28;20199;-78
2022/11/07 04:09:19;;;;;;;5.63;0.70;;;26.20;99.90;;;;;;5037098;28;20251;-77
2022/11/07 04:17:25;;;;;;;4.50;0.68;;;26.30;99.90;;;;;;5049560;28;20713;-78
2022/11/07 04:19:57;;;;;;;1.67;0.57;;;26.40;99.90;;;;;;5035594;28;20209;-77
2022/11/07 04:22:28;;;;;;;2.58;0.75;;;26.40;99.90;;;;;;5045381;28;20201;-78
2022/11/07 04:25:02;;;;;;;1.30;0.50;;;26.10;99.90;;;;;;5046009;28;20192;-78
2022/11/07 04:27:42;;;;;;;3.60;0.60;;;26.00;99.90;;;;;;5039324;28;20563;-79
2022/11/07 04:30:22;;;;;;;3.05;0.70;;;26.30;99.90;;;;;;5037221;28;20220;-78
2022/11/07 04:32:54;;;;;;;4.25;0.90;;;26.50;99.90;;;;;;5039609;28;20633;-77
2022/11/07 04:35:27;;;;;;;3.28;0.47;;;26.40;99.90;;;;;;5036767;28;20197;-78
2022/11/07 04:37:58;;;;;;;0.77;0.45;;;26.70;99.90;;;;;;5041207;28;20213;-79
2022/11/07 04:40:29;;;;;;;2.47;0.50;;;26.80;99.90;;;;;;5047534;28;20204;-77
2022/11/07 04:43:02;;;;;;;2.05;0.60;;;26.90;99.90;;;;;;5038588;28;20213;-78
2022/11/07 04:45:33;;;;;;;2.25;0.52;;;27.10;99.90;;;;;;5034790;28;20211;-78
2022/11/07 04:48:04;;;;;;;3.28;0.40;;;27.30;99.90;;;;;;5045576;28;20674;-77
2022/11/07 04:50:35;;;;;;;1.33;0.40;;;26.60;99.90;;;;;;5048263;28;20232;-78
2022/11/07 04:53:05;;;;;;;3.80;0.70;;;26.70;99.90;;;;;;5052177;28;20691;-78
2022/11/07 04:55:36;;;;;;;1.67;0.40;;;27.00;99.90;;;;;;5045529;28;20193;-79
2022/11/07 04:58:09;;;;;;;2.30;0.50;;;27.00;99.90;;;;;;5034144;28;20197;-78
2022/11/07 05:00:40;;;;;;;3.08;0.60;;;27.10;99.90;;;;;;5044553;28;20201;-79
2022/11/07 05:03:12;;;;;;;2.28;0.70;;;27.40;99.90;;;;;;5041752;28;20569;-80
2022/11/07 05:05:43;;;;;;;3.03;0.70;;;27.70;99.90;;;;;;5052531;28;20207;-79
2022/11/07 05:08:13;;;;;;;1.05;0.45;;;27.80;99.90;;;;;;5048053;28;20283;-79
2022/11/07 05:10:45;;;;;;;2.25;0.50;;;27.70;99.90;;;;;;5034517;28;20691;-79
2022/11/07 05:13:18;;;;;;;1.13;0.38;;;27.70;99.90;;;;;;5040286;28;20673;-78
2022/11/07 05:15:49;;;;;;;2.67;0.40;;;27.60;99.90;;;;;;5049542;28;20306;-79
2022/11/07 05:18:23;;;;;;;3.63;0.50;;;27.40;99.90;;;;;;5047699;28;20651;-77
2022/11/07 05:20:55;;;;;;;2.17;0.60;;;27.40;99.90;;;;;;5047020;28;20658;-77
2022/11/07 05:23:26;;;;;;;2.72;0.50;;;27.60;99.90;;;;;;5039355;28;20208;-77
2022/11/07 05:25:58;;;;;;;3.80;0.57;;;27.80;99.90;;;;;;5038477;28;20350;-78
2022/11/07 05:28:32;;;;;;;4.43;0.80;;;27.80;99.90;;;;;;5035770;28;20703;-79
2022/11/07 05:31:05;;;;;;;1.75;0.70;;;27.90;99.90;;;;;;5044772;28;20272;-81
2022/11/07 05:33:35;;;;;;;4.35;0.43;;;28.30;99.90;;;;;;5036032;28;20637;-80
2022/11/07 05:36:15;;;;;;;3.22;0.70;;;28.50;99.90;;;;;;5033148;28;20205;-80
2022/11/07 05:38:47;;;;;;;1.65;0.50;;;28.40;99.90;;;;;;5051248;28;20232;-80
2022/11/07 05:41:19;;;;;;;2.83;0.55;;;28.30;99.90;;;;;;5047678;28;20232;-81
2022/11/07 05:43:51;;;;;;;2.15;0.60;;;28.40;99.90;;;;;;5043632;28;20193;-80
2022/11/07 05:46:22;;;;;;;4.57;0.50;;;28.40;99.90;;;;;;5048499;28;20203;-80
2022/11/07 05:48:54;;;;;;;1.85;0.50;;;28.60;99.90;;;;;;5048975;28;20212;-80
2022/11/07 05:51:26;;;;;;;1.33;0.50;;;29.20;99.80;;;;;;5036790;28;20212;-81
2022/11/07 05:53:56;;;;;;;1.95;0.60;;;29.10;99.30;;;;;;5048449;28;20320;-80
2022/11/07 05:56:28;;;;;;;2.78;0.50;;;29.00;98.80;;;;;;5052837;28;20195;-80
2022/11/07 05:59:00;;;;;;;2.92;0.68;;;29.10;98.30;;;;;;5056717;28;20224;-78
2022/11/07 06:01:31;;;;;;;1.65;0.50;;;29.40;96.70;;;;;;5050813;28;20199;-84
2022/11/07 06:04:02;;;;;;;3.35;0.60;;;29.00;96.00;;;;;;5044988;28;20216;-82
2022/11/07 06:06:33;;;;;;;2.20;0.60;;;29.20;93.40;;;;;;5052736;28;20203;-79
2022/11/07 06:09:03;;;;;;;3.20;0.60;;;29.70;92.40;;;;;;5041789;28;20198;-80
2022/11/07 06:11:35;;;;;;;4.38;0.60;;;29.70;92.70;;;;;;5032824;28;20204;-79
2022/11/07 06:14:07;;;;;;;2.95;0.60;;;29.80;91.10;;;;;;5042591;28;20606;-80
2022/11/07 06:16:38;;;;;;;2.05;0.65;;;29.80;92.80;;;;;;5047555;28;20209;-78
2022/11/07 06:19:09;;;;;;;4.25;0.60;;;29.50;93.80;;;;;;5049321;28;20216;-78
2022/11/07 06:21:40;;;;;;;2.17;0.68;;;29.40;94.40;;;;;;5045452;28;20212;-78
2022/11/07 06:24:12;;;;;;;2.28;0.50;;;29.60;94.70;;;;;;5043184;28;20202;-77
2022/11/07 06:26:43;;;;;;;2.08;0.65;;;29.70;91.60;;;;;;5040855;28;20207;-76
2022/11/07 06:29:16;;;;;;;2.90;0.63;;;29.90;93.20;;;;;;5038338;28;20204;-78
2022/11/07 06:31:46;;;;;;;4.65;0.70;;;29.60;93.40;;;;;;5050693;28;20193;-77
2022/11/07 06:34:17;;;;;;;2.70;0.65;;;29.50;94.50;;;;;;5049909;28;20227;-79
2022/11/07 06:36:48;;;;;;;3.72;0.80;;;29.20;94.30;;;;;;5051375;28;20192;-78
2022/11/07 06:39:19;;;;;;;1.92;0.70;;;29.40;95.60;;;;;;5051969;28;20691;-78
2022/11/07 06:41:51;;;;;;;2.42;0.80;;;29.60;94.90;;;;;;5049048;28;20196;-78
2022/11/07 06:44:25;;;;;;;4.40;0.70;;;29.50;95.80;;;;;;5050484;28;20193;-78
2022/11/07 06:46:56;;;;;;;2.30;0.65;;;29.60;94.50;;;;;;5045990;28;20279;-79
2022/11/07 06:49:28;;;;;;;3.80;0.82;;;29.70;94.90;;;;;;5047648;28;20200;-79
2022/11/07 06:51:59;;;;;;;1.80;0.60;;;30.00;93.50;;;;;;5042920;28;20188;-80
2022/11/07 06:54:30;;;;;;;3.15;0.70;;;29.80;93.50;;;;;;5040654;28;20640;-78
2022/11/07 06:57:01;;;;;;;1.60;0.52;;;29.70;93.50;;;;;;5052158;28;20250;-78
2022/11/07 06:59:34;;;;;;;2.72;0.68;;;29.70;93.90;;;;;;5051849;28;20633;-79
2022/11/07 07:02:05;;;;;;;2.22;0.60;;;29.70;93.90;;;;;;5037122;28;20217;-78
2022/11/07 07:04:36;;;;;;;2.13;0.47;;;29.60;94.20;;;;;;5045806;28;20313;-79
2022/11/07 07:07:06;;;;;;;2.42;0.60;;;29.50;94.30;;;;;;5042742;28;20227;-79
2022/11/07 07:09:37;;;;;;;2.53;0.40;;;29.60;93.40;;;;;;5051664;28;20306;-79
2022/11/07 07:12:08;;;;;;;2.15;0.70;;;29.70;93.00;;;;;;5061179;28;20208;-79
2022/11/07 07:14:41;;;;;;;2.80;0.65;;;29.60;92.90;;;;;;5042304;28;20860;-79
2022/11/07 07:17:12;;;;;;;2.78;0.60;;;29.40;93.10;;;;;;5034850;28;20213;-79
2022/11/07 07:19:43;;;;;;;2.25;0.60;;;29.30;93.70;;;;;;5045204;28;20223;-79
2022/11/07 07:22:15;;;;;;;2.95;0.90;;;29.40;93.00;;;;;;5050486;28;20201;-79
2022/11/07 07:24:49;;;;;;;2.55;0.60;;;29.30;93.90;;;;;;5044154;28;20634;-78
2022/11/07 07:27:21;;;;;;;2.78;0.70;;;29.00;93.70;;;;;;5050975;28;20300;-78
2022/11/07 07:29:53;;;;;;;3.53;0.63;;;28.70;94.20;;;;;;5058906;28;20204;-78
2022/11/07 07:32:24;;;;;;;1.67;0.50;;;28.60;94.80;;;;;;5050940;28;20208;-78
2022/11/07 07:34:55;;;;;;;2.38;0.70;;;28.00;95.80;;;;;;5050523;28;20197;-79
2022/11/07 07:37:26;;;;;;;2.28;0.60;;;27.40;98.30;;;;;;5050871;28;20200;-78
2022/11/07 07:39:57;;;;;;;2.67;0.75;;;26.70;99.90;;;;;;5044182;28;20300;-79
2022/11/07 07:42:28;;;;;;;3.22;0.68;;;26.10;99.90;;;;;;5036705;28;20192;-79
2022/11/07 07:45:00;;;;;;;2.45;0.50;;;25.30;99.90;;;;;;5049801;28;20189;-79
2022/11/07 07:47:31;;;;;;;3.35;0.60;;;24.90;99.90;;;;;;5056897;28;20582;-79
2022/11/07 07:50:02;;;;;;;3.22;0.80;;;24.60;99.90;;;;;;5045420;28;20695;-79
2022/11/07 07:52:33;;;;;;;3.17;0.75;;;24.30;99.90;;;;;;5045794;28;20197;-79
2022/11/07 07:55:04;;;;;;;2.10;0.60;;;24.10;99.90;;;;;;5048522;28;20197;-79
2022/11/07 07:57:39;;;;;;;2.58;0.70;;;24.20;99.90;;;;;;5042168;28;20276;-79
2022/11/07 08:00:13;;;;;;;3.42;0.70;;;24.00;99.90;;;;;;5040510;28;20226;-79
2022/11/07 08:02:44;;;;;;;2.88;0.82;;;23.90;99.90;;;;;;5061759;28;20207;-79
2022/11/07 08:05:16;;;;;;;2.35;0.63;;;23.60;99.90;;;;;;5051510;28;20201;-79
2022/11/07 08:07:50;;;;;;;2.10;0.90;;;23.60;99.90;;;;;;5054121;28;20197;-78
2022/11/07 08:10:21;;;;;;;4.53;1.30;;;23.60;99.90;;;;;;5041150;28;20927;-78
2022/11/07 08:12:53;;;;;;;2.17;0.80;;;23.40;99.90;;;;;;5049894;28;20200;-79
2022/11/07 08:15:26;;;;;;;3.47;0.70;;;23.30;99.90;;;;;;5048789;28;20202;-79
2022/11/07 08:17:57;;;;;;;2.08;0.70;;;23.20;99.90;;;;;;5049203;28;20234;-79
2022/11/07 08:20:28;;;;;;;2.05;0.70;;;23.20;99.90;;;;;;5034315;28;20274;-79
2022/11/07 08:23:04;;;;;;;3.25;0.52;;;22.90;99.90;;;;;;5033264;28;20192;-79
2022/11/07 08:25:35;;;;;;;3.00;0.70;;;22.90;99.90;;;;;;5038431;28;20275;-80
2022/11/07 08:28:07;;;;;;;3.58;0.77;;;22.80;99.90;;;;;;5045240;28;20199;-80
2022/11/07 08:30:39;;;;;;;3.20;0.70;;;22.80;99.90;;;;;;5045710;28;20644;-79
2022/11/07 08:33:11;;;;;;;2.65;0.70;;;22.70;99.90;;;;;;5040191;28;20592;-78
2022/11/07 08:35:43;;;;;;;4.50;0.55;;;22.70;99.90;;;;;;5045944;28;20261;-78
2022/11/07 08:38:13;;;;;;;3.35;0.80;;;22.70;99.90;;;;;;5050051;28;20689;-78
2022/11/07 08:40:45;;;;;;;3.08;0.80;;;22.60;99.90;;;;;;5040627;28;20267;-78
2022/11/07 08:43:16;;;;;;;3.28;0.77;;;22.60;99.90;;;;;;5050107;28;20550;-77
2022/11/07 08:45:50;;;;;;;4.47;0.93;;;22.60;99.90;;;;;;5049413;28;20208;-80
2022/11/07 08:48:22;;;;;;;3.45;1.20;;;22.60;99.90;;;;;;5044605;28;20211;-79
2022/11/07 08:50:56;;;;;;;5.93;1.08;;;22.50;99.90;;;;;;5039793;28;20193;-80
2022/11/07 08:53:28;;;;;;;3.60;1.08;;;22.40;99.90;;;;;;5049823;28;20579;-79
2022/11/07 08:56:05;;;;;;;6.28;0.90;;;22.40;99.90;;;;;;5030110;28;20204;-78
2022/11/07 08:58:36;;;;;;;5.35;0.90;;;22.40;99.90;;;;;;5040545;28;20563;-79
2022/11/07 09:01:11;;;;;;;2.95;0.75;;;22.30;99.90;;;;;;5053040;28;20254;-79
2022/11/07 09:03:43;;;;;;;3.90;0.90;;;22.30;99.90;;;;;;5046042;28;20192;-79
2022/11/07 09:06:15;;;;;;;4.53;0.70;;;22.20;99.90;;;;;;5049707;28;20197;-78
2022/11/07 09:08:46;;;;;;;2.83;0.82;;;22.20;99.90;;;;;;5054482;28;20271;-79
2022/11/07 09:11:18;;;;;;;3.45;0.80;;;22.20;99.90;;;;;;5056331;28;20199;-78
2022/11/07 09:13:49;;;;;;;4.68;0.80;;;22.20;99.90;;;;;;5057417;28;20228;-78
2022/11/07 09:16:22;;;;;;;7.03;0.80;;;22.20;99.90;;;;;;5050370;28;20197;-78
2022/11/07 09:18:53;;;;;;;5.55;0.90;;;22.20;99.90;;;;;;5067898;28;20197;-78
2022/11/07 09:21:24;;;;;;;3.83;0.93;;;22.10;99.90;;;;;;5045821;28;20229;-78
2022/11/07 09:23:55;;;;;;;4.85;0.70;;;22.10;99.90;;;;;;5052186;28;20546;-80
2022/11/07 09:26:27;;;;;;;1.90;0.60;;;22.10;99.90;;;;;;5045806;28;20193;-78
2022/11/07 09:28:58;;;;;;;5.75;0.80;;;22.00;99.90;;;;;;5039892;28;20204;-80
2022/11/07 09:31:30;;;;;;;3.38;0.80;;;22.00;99.90;;;;;;5033693;28;20201;-80
2022/11/07 09:34:02;;;;;;;4.80;0.65;;;22.00;99.90;;;;;;5039920;28;20226;-78
2022/11/07 09:36:32;;;;;;;3.03;0.90;;;21.90;99.90;;;;;;5036495;28;20201;-79
2022/11/07 09:39:03;;;;;;;3.30;0.75;;;21.90;99.90;;;;;;5046585;28;20193;-78
2022/11/07 09:41:46;;;;;;;3.60;0.82;;;22.00;99.90;;;;;;5034823;28;20221;-78
2022/11/07 09:44:30;;;;;;;3.05;0.85;;;21.90;99.90;;;;;;5047232;28;20692;-78
2022/11/07 09:47:09;;;;;;;3.53;0.88;;;21.90;99.90;;;;;;5038476;28;20208;-77
2022/11/07 09:49:43;;;;;;;3.58;0.70;;;21.90;99.90;;;;;;5049714;28;20194;-78
2022/11/07 09:52:21;;;;;;;5.35;0.63;;;21.90;99.90;;;;;;5057048;28;20663;-78
2022/11/07 09:54:57;;;;;;;3.35;0.68;;;21.90;99.90;;;;;;5052642;28;20575;-78
2022/11/07 09:57:28;;;;;;;4.72;0.90;;;21.80;99.90;;;;;;5041577;28;20577;-79
2022/11/07 10:00:03;;;;;;;3.53;0.63;;;21.70;99.90;;;;;;5043366;28;20690;-78
2022/11/07 10:02:42;;;;;;;3.13;0.80;;;21.80;99.90;;;;;;5051776;28;20279;-78
2022/11/07 10:05:17;;;;;;;4.72;0.90;;;21.70;99.90;;;;;;5049750;28;20574;-79
2022/11/07 10:08:00;;;;;;;4.55;0.90;;;21.70;99.90;;;;;;5050364;28;20203;-78
2022/11/07 10:10:41;;;;;;;4.55;0.82;;;21.70;99.90;;;;;;5052635;28;20201;-78
2022/11/07 10:13:30;;;;;;;2.53;0.60;;;21.60;99.90;;;;;;5050946;28;20268;-79
2022/11/07 10:16:09;;;;;;;2.78;0.70;;;21.60;99.90;;;;;;5052347;28;20203;-77
2022/11/07 10:18:51;;;;;;;3.38;0.63;;;21.60;99.90;;;;;;5058280;28;20201;-78
2022/11/07 10:21:29;;;;;;;7.53;0.88;;;21.70;99.90;;;;;;5043676;28;20254;-78
2022/11/07 10:24:20;;;;;;;2.53;0.70;;;21.70;99.90;;;;;;5032827;28;20204;-78
2022/11/07 10:26:50;;;;;;;1.80;0.70;;;21.70;99.90;;;;;;5036358;28;20199;-77
2022/11/07 10:29:25;;;;;;;2.55;0.50;;;21.60;99.90;;;;;;5047653;28;20675;-77
2022/11/07 10:32:02;;;;;;;3.08;0.70;;;21.60;99.90;;;;;;5046227;28;20208;-78
2022/11/07 10:34:39;;;;;;;1.83;0.60;;;21.60;99.90;;;;;;5049139;28;20315;-78
2022/11/07 10:37:11;;;;;;;3.90;0.90;;;21.50;99.90;;;;;;5050757;28;20196;-79
2022/11/07 10:39:43;;;;;;;3.72;0.80;;;21.50;99.90;;;;;;5052133;28;20737;-79
2022/11/07 10:42:18;;;;;;;3.22;0.70;;;21.50;99.90;;;;;;5042819;28;20272;-78
2022/11/07 10:48:01;;;;;;;6.28;1.00;;;21.40;99.90;;;;;;5072459;28;20659;-78
2022/11/07 10:50:43;;;;;;;2.47;0.80;;;21.40;99.90;;;;;;5062185;28;20200;-79
2022/11/07 10:53:27;;;;;;;2.17;0.70;;;21.40;99.90;;;;;;5063507;28;20280;-78
2022/11/07 10:56:15;;;;;;;2.42;0.70;;;21.50;99.90;;;;;;5060976;28;20192;-79
2022/11/07 10:58:54;;;;;;;3.55;0.80;;;21.50;99.90;;;;;;5062106;28;20204;-79
2022/11/07 11:01:27;;;;;;;4.95;1.00;;;21.50;99.90;;;;;;5057072;28;20251;-78
2022/11/07 11:04:02;;;;;;;2.95;0.77;;;21.50;99.90;;;;;;5055334;28;20192;-78
2022/11/07 11:07:13;;;;;;;2.17;0.60;;;21.50;99.90;;;;;;5051692;28;20616;-80
2022/11/07 11:09:54;;;;;;;3.50;0.63;;;21.50;99.90;;;;;;5014150;28;20204;-78
2022/11/07 11:12:28;;;;;;;3.67;0.50;;;21.40;99.90;;;;;;5054477;28;20197;-78
2022/11/07 11:15:18;;;;;;;2.97;0.90;;;21.30;99.90;;;;;;5068741;28;20219;-78
2022/11/07 11:18:00;;;;;;;3.20;0.80;;;21.30;99.90;;;;;;5056820;28;20248;-77
2022/11/07 11:20:37;;;;;;;4.20;0.95;;;21.30;99.90;;;;;;5054191;28;20216;-79
2022/11/07 11:23:19;;;;;;;2.30;0.70;;;21.30;99.90;;;;;;5036910;28;20422;-79
2022/11/07 11:26:01;;;;;;;2.15;0.52;;;21.30;99.90;;;;;;5067306;28;20196;-79
2022/11/07 11:28:47;;;;;;;4.35;0.80;;;21.30;99.90;;;;;;5097398;28;20230;-78
2022/11/07 11:31:23;;;;;;;1.27;0.57;;;21.30;99.90;;;;;;5083093;23;20288;-78
2022/11/07 11:34:00;;;;;;;3.50;0.80;;;21.30;99.90;;;;;;5073682;28;20218;-78
2022/11/07 11:36:39;;;;;;;5.00;0.73;;;21.20;99.90;;;;;;5072655;28;20228;-80
2022/11/07 11:42:17;;;;;;;2.55;0.57;;;21.20;99.90;;;;;;5077990;28;20230;-80
2022/11/07 11:45:00;;;;;;;2.28;0.55;;;21.20;99.90;;;;;;5084646;28;20226;-79
2022/11/07 11:47:43;;;;;;;2.65;0.75;;;21.20;99.90;;;;;;5081638;28;20242;-78
2022/11/07 11:50:19;;;;;;;4.18;0.70;;;21.20;99.90;;;;;;5067284;28;20212;-79
2022/11/07 11:52:52;;;;;;;6.05;0.75;;;21.20;99.90;;;;;;5055689;28;20235;-80
2022/11/07 11:55:37;;;;;;;3.83;0.60;;;21.20;99.90;;;;;;5075590;28;20215;-80
2022/11/07 11:58:19;;;;;;;4.53;0.70;;;21.10;99.90;;;;;;5077410;28;20191;-80
2022/11/07 12:00:57;;;;;;;3.83;0.80;;;21.10;99.90;;;;;;5080800;28;20385;-80
2022/11/07 12:03:49;;;;;;;4.03;0.85;;;21.20;99.90;;;;;;5082171;28;20286;-81
2022/11/07 12:06:26;;;;;;;4.30;0.90;;;21.10;99.90;;;;;;5067898;28;20196;-79
2022/11/07 12:09:14;;;;;;;3.92;0.88;;;21.20;99.90;;;;;;5069323;28;20309;-80
2022/11/07 12:12:27;;;;;;;5.35;1.02;;;21.20;99.90;;;;;;5093487;28;20208;-81
2022/11/07 12:15:44;;;;;;;4.28;0.90;;;21.20;99.90;;;;;;5150799;22;20195;-79
2022/11/07 12:18:32;;;;;;;2.58;0.73;;;21.20;99.90;;;;;;5122696;28;20246;-79
2022/11/07 12:21:25;;;;;;;3.65;0.70;;;21.20;99.90;;;;;;5105403;28;20714;-79
2022/11/07 12:24:11;;;;;;;6.03;0.95;;;21.20;99.90;;;;;;5105115;28;20200;-79
2022/11/07 12:30:17;;;;;;;2.67;0.60;;;21.30;99.90;;;;;;5122375;28;20207;-81
2022/11/07 12:33:02;;;;;;;4.30;0.82;;;21.30;99.90;;;;;;5114384;28;20211;-80
2022/11/07 12:35:43;;;;;;;2.63;0.80;;;21.30;99.90;;;;;;5100019;28;20209;-79
2022/11/07 12:38:51;;;;;;;1.67;0.63;;;21.30;99.90;;;;;;5104393;28;20233;-79
2022/11/07 12:41:39;;;;;;;5.68;0.80;;;21.30;99.90;;;;;;5100460;28;20207;-79
2022/11/07 12:44:37;;;;;;;5.25;0.93;;;21.20;99.90;;;;;;5120518;28;20215;-80
2022/11/07 12:47:18;;;;;;;5.07;1.08;;;21.10;99.90;;;;;;5105284;28;20195;-79
2022/11/07 12:50:16;;;;;;;5.78;1.20;;;20.90;99.90;;;;;;5103539;28;20550;-79
2022/11/07 12:53:01;;;;;;;6.82;1.50;;;20.80;99.90;;;;;;5101788;28;20726;-78
2022/11/07 12:55:41;;;;;;;15.35;3.00;;;20.60;99.90;;;;;;5102142;28;20203;-79
2022/11/07 12:58:19;;;;;;;12.20;2.80;;;20.60;99.90;;;;;;5110289;28;20204;-79
2022/11/07 13:00:53;;;;;;;6.07;1.35;;;20.50;99.90;;;;;;5090031;28;20191;-78
2022/11/07 13:03:52;;;;;;;11.40;2.22;;;20.40;99.90;;;;;;5100405;28;20652;-79
2022/11/07 13:06:29;;;;;;;9.52;1.48;;;20.40;99.90;;;;;;5100731;28;20208;-79
2022/11/07 13:09:06;;;;;;;11.05;1.55;;;20.30;99.90;;;;;;5094975;28;20187;-81
2022/11/07 13:11:45;;;;;;;6.10;1.30;;;20.30;99.90;;;;;;5114806;28;20222;-80
2022/11/07 13:14:26;;;;;;;4.43;1.20;;;20.20;99.90;;;;;;5104089;28;20566;-78
2022/11/07 13:17:26;;;;;;;3.88;1.23;;;20.20;99.90;;;;;;5101410;28;20230;-79
2022/11/07 13:20:06;;;;;;;5.95;1.10;;;20.10;99.90;;;;;;5092890;28;20176;-79
2022/11/07 13:22:39;;;;;;;3.90;0.80;;;20.10;99.90;;;;;;5100309;22;20544;-79
2022/11/07 13:25:24;;;;;;;2.45;0.68;;;20.00;99.90;;;;;;5016993;28;20222;-80
2022/11/07 13:28:31;;;;;;;3.72;0.85;;;19.90;99.90;;;;;;5018989;28;20221;-80
2022/11/07 13:31:03;;;;;;;4.15;0.90;;;19.80;99.90;;;;;;5035515;28;20251;-80
2022/11/07 13:33:37;;;;;;;3.38;0.60;;;19.80;99.90;;;;;;5039298;28;20206;-80
2022/11/07 13:36:16;;;;;;;3.85;0.80;;;19.80;99.90;;;;;;5047161;28;20196;-80
2022/11/07 13:38:51;;;;;;;4.38;1.00;;;19.80;99.90;;;;;;5052910;28;20197;-80
2022/11/07 13:41:24;;;;;;;3.50;0.77;;;19.80;99.90;;;;;;5034690;28;20220;-80
2022/11/07 13:44:00;;;;;;;3.92;0.80;;;19.80;99.90;;;;;;5040382;28;20608;-80